Time,TemperatureF,DewpointF,PressureIn,WindDirection,WindDirectionDegrees,WindSpeedMPH,WindSpeedGustMPH,Humidity,HourlyPrecipIn,Conditions,Clouds,dailyrainin,SoftwareType,DateUTC
2013-04-26 00:00:00,40.0,37.9,29.49,WNW,300,0.0,2.0,92,0.00,,,0.00,Wunderground v.1.15,2013-04-26 04:00:00,
2013-04-26 00:04:00,40.0,37.9,29.49,WNW,300,0.0,2.0,92,0.00,,,0.00,Wunderground v.1.15,2013-04-26 04:04:00,
2013-04-26 00:09:00,39.9,37.8,29.49,WNW,292,0.0,1.0,92,0.00,,,0.00,Wunderground v.1.15,2013-04-26 04:09:00,
2013-04-26 00:14:00,40.0,37.9,29.49,WNW,292,1.0,4.0,92,0.00,,,0.00,Wunderground v.1.15,2013-04-26 04:14:00,
2013-04-26 00:19:00,40.0,37.9,29.50,WNW,294,2.0,2.0,92,0.00,,,0.00,Wunderground v.1.15,2013-04-26 04:19:00,
2013-04-26 00:24:00,39.9,37.8,29.49,WNW,296,1.0,2.0,92,0.00,,,0.00,Wunderground v.1.15,2013-04-26 04:24:00,
2013-04-26 00:29:00,39.9,37.8,29.50,WNW,291,2.0,2.0,92,0.00,,,0.00,Wunderground v.1.15,2013-04-26 04:29:00,
2013-04-26 00:34:00,39.9,38.0,29.50,NW,308,1.0,2.0,93,0.00,,,0.00,Wunderground v.1.15,2013-04-26 04:34:00,
2013-04-26 00:39:00,39.9,38.0,29.50,WNW,300,0.0,0.0,93,0.00,,,0.00,Wunderground v.1.15,2013-04-26 04:39:00,
2013-04-26 00:49:00,39.8,37.9,29.50,WNW,299,1.0,1.0,93,0.00,,,0.00,Wunderground v.1.15,2013-04-26 04:49:00,
2013-04-26 00:54:00,39.7,37.8,29.50,WNW,297,0.0,1.0,93,0.00,,,0.00,Wunderground v.1.15,2013-04-26 04:54:00,
2013-04-26 00:59:00,39.7,37.8,29.50,WNW,294,0.0,1.0,93,0.00,,,0.00,Wunderground v.1.15,2013-04-26 04:59:00,
2013-04-26 01:04:00,39.7,37.8,29.50,WNW,291,1.0,4.0,93,0.00,,,0.00,Wunderground v.1.15,2013-04-26 05:04:00,
2013-04-26 01:09:00,39.7,38.1,29.50,NNW,333,1.0,6.0,94,0.00,,,0.00,Wunderground v.1.15,2013-04-26 05:09:00,
2013-04-26 01:15:00,39.7,38.1,29.50,WNW,302,2.0,6.0,94,0.00,,,0.00,Wunderground v.1.15,2013-04-26 05:15:00,
2013-04-26 01:24:00,39.8,38.2,29.50,WNW,296,1.0,4.0,94,0.00,,,0.00,Wunderground v.1.15,2013-04-26 05:24:00,
2013-04-26 01:29:00,39.9,38.3,29.50,WNW,301,2.0,4.0,94,0.00,,,0.00,Wunderground v.1.15,2013-04-26 05:29:00,
2013-04-26 01:34:00,40.0,38.4,29.50,WNW,290,2.0,4.0,94,0.00,,,0.00,Wunderground v.1.15,2013-04-26 05:34:00,
2013-04-26 01:39:00,40.1,38.5,29.50,WNW,290,1.0,4.0,94,0.00,,,0.00,Wunderground v.1.15,2013-04-26 05:39:00,
2013-04-26 01:44:00,40.2,38.6,29.50,WNW,294,1.0,4.0,94,0.00,,,0.00,Wunderground v.1.15,2013-04-26 05:44:00,
2013-04-26 01:50:00,40.4,38.8,29.51,WNW,296,2.0,2.0,94,0.00,,,0.00,Wunderground v.1.15,2013-04-26 05:50:00,
2013-04-26 01:55:00,40.4,38.8,29.51,West,279,2.0,4.0,94,0.00,,,0.00,Wunderground v.1.15,2013-04-26 05:55:00,
2013-04-26 02:00:00,40.5,38.9,29.51,WNW,300,1.0,1.0,94,0.00,,,0.00,Wunderground v.1.15,2013-04-26 06:00:00,
2013-04-26 02:05:00,40.6,39.0,29.51,NW,304,1.0,4.0,94,0.00,,,0.00,Wunderground v.1.15,2013-04-26 06:05:00,
2013-04-26 02:10:00,40.6,39.0,29.51,NW,315,1.0,1.0,94,0.00,,,0.00,Wunderground v.1.15,2013-04-26 06:10:00,
2013-04-26 02:15:00,40.7,39.1,29.51,NW,319,1.0,3.0,94,0.00,,,0.00,Wunderground v.1.15,2013-04-26 06:15:00,
2013-04-26 02:25:00,40.6,39.0,29.51,NW,317,1.0,4.0,94,0.00,,,0.00,Wunderground v.1.15,2013-04-26 06:25:00,
2013-04-26 02:30:00,40.5,38.9,29.51,NW,324,1.0,1.0,94,0.00,,,0.00,Wunderground v.1.15,2013-04-26 06:30:00,
2013-04-26 02:35:00,40.4,38.8,29.51,NW,304,1.0,2.0,94,0.00,,,0.00,Wunderground v.1.15,2013-04-26 06:35:00,
2013-04-26 02:40:00,40.5,38.9,29.52,NW,313,1.0,5.0,94,0.00,,,0.00,Wunderground v.1.15,2013-04-26 06:40:00,
2013-04-26 02:45:00,40.5,38.9,29.52,NW,309,1.0,5.0,94,0.00,,,0.00,Wunderground v.1.15,2013-04-26 06:45:00,
2013-04-26 02:55:00,40.4,38.8,29.52,NW,317,2.0,4.0,94,0.00,,,0.00,Wunderground v.1.15,2013-04-26 06:55:00,
2013-04-26 03:00:00,40.4,38.8,29.52,NW,308,2.0,2.0,94,0.00,,,0.00,Wunderground v.1.15,2013-04-26 07:00:00,
2013-04-26 03:05:00,40.3,38.7,29.52,NW,321,2.0,4.0,94,0.00,,,0.00,Wunderground v.1.15,2013-04-26 07:05:00,
2013-04-26 03:10:00,40.2,38.6,29.52,NW,323,2.0,2.0,94,0.00,,,0.00,Wunderground v.1.15,2013-04-26 07:10:00,
2013-04-26 03:15:00,40.0,38.1,29.52,NNW,348,2.0,4.0,93,0.00,,,0.00,Wunderground v.1.15,2013-04-26 07:15:00,
2013-04-26 03:20:00,39.8,37.9,29.52,NNW,342,1.0,4.0,93,0.00,,,0.00,Wunderground v.1.15,2013-04-26 07:20:00,
2013-04-26 03:29:00,39.4,37.5,29.53,NNW,341,1.0,1.0,93,0.00,,,0.00,Wunderground v.1.15,2013-04-26 07:29:00,
2013-04-26 03:34:00,39.2,37.3,29.53,NNW,341,0.0,4.0,93,0.00,,,0.00,Wunderground v.1.15,2013-04-26 07:34:00,
2013-04-26 03:39:00,39.1,37.2,29.53,NW,315,0.0,4.0,93,0.00,,,0.00,Wunderground v.1.15,2013-04-26 07:39:00,
2013-04-26 03:44:00,38.9,37.0,29.53,NW,316,0.0,4.0,93,0.00,,,0.00,Wunderground v.1.15,2013-04-26 07:44:00,
2013-04-26 03:49:00,38.9,37.3,29.53,NW,317,0.0,4.0,94,0.00,,,0.00,Wunderground v.1.15,2013-04-26 07:49:00,
2013-04-26 03:59:00,38.9,37.3,29.54,NW,311,0.0,4.0,94,0.00,,,0.00,Wunderground v.1.15,2013-04-26 07:59:00,
2013-04-26 04:04:00,38.9,37.3,29.54,NW,312,0.0,4.0,94,0.00,,,0.00,Wunderground v.1.15,2013-04-26 08:04:00,
2013-04-26 04:09:00,38.8,37.2,29.54,NW,312,0.0,4.0,94,0.00,,,0.00,Wunderground v.1.15,2013-04-26 08:09:00,
2013-04-26 04:14:00,38.7,37.1,29.54,NW,313,0.0,4.0,94,0.00,,,0.00,Wunderground v.1.15,2013-04-26 08:14:00,
2013-04-26 04:19:00,38.6,37.0,29.54,NW,312,0.0,4.0,94,0.00,,,0.00,Wunderground v.1.15,2013-04-26 08:19:00,
2013-04-26 04:24:00,38.5,36.9,29.55,NW,311,0.0,4.0,94,0.00,,,0.00,Wunderground v.1.15,2013-04-26 08:24:00,
2013-04-26 04:34:00,38.4,36.8,29.55,NW,311,0.0,4.0,94,0.00,,,0.00,Wunderground v.1.15,2013-04-26 08:34:00,
2013-04-26 04:39:00,38.3,36.7,29.55,NW,311,0.0,4.0,94,0.00,,,0.00,Wunderground v.1.15,2013-04-26 08:39:00,
2013-04-26 04:44:00,38.3,36.7,29.56,NW,311,0.0,4.0,94,0.00,,,0.00,Wunderground v.1.15,2013-04-26 08:44:00,
2013-04-26 04:49:00,38.2,36.6,29.56,NW,311,0.0,4.0,94,0.00,,,0.00,Wunderground v.1.15,2013-04-26 08:49:00,
2013-04-26 04:54:00,38.2,36.6,29.56,NW,311,0.0,4.0,94,0.00,,,0.00,Wunderground v.1.15,2013-04-26 08:54:00,
2013-04-26 05:00:00,38.1,36.5,29.56,NW,311,0.0,4.0,94,0.00,,,0.00,Wunderground v.1.15,2013-04-26 09:00:00,
2013-04-26 05:05:00,38.1,36.5,29.56,NW,311,0.0,4.0,94,0.00,,,0.00,Wunderground v.1.15,2013-04-26 09:05:00,
2013-04-26 05:10:00,38.1,36.5,29.56,NW,311,0.0,4.0,94,0.00,,,0.00,Wunderground v.1.15,2013-04-26 09:10:00,
2013-04-26 05:15:00,38.1,36.5,29.56,NW,311,0.0,4.0,94,0.00,,,0.00,Wunderground v.1.15,2013-04-26 09:15:00,
2013-04-26 05:20:00,38.1,36.5,29.57,NW,312,0.0,4.0,94,0.00,,,0.00,Wunderground v.1.15,2013-04-26 09:20:00,
2013-04-26 05:25:00,38.1,36.5,29.57,NW,306,0.0,4.0,94,0.00,,,0.00,Wunderground v.1.15,2013-04-26 09:25:00,
2013-04-26 05:35:00,38.1,36.5,29.57,NW,306,0.0,4.0,94,0.00,,,0.00,Wunderground v.1.15,2013-04-26 09:35:00,
2013-04-26 05:40:00,38.0,36.4,29.57,NW,306,0.0,4.0,94,0.00,,,0.00,Wunderground v.1.15,2013-04-26 09:40:00,
2013-04-26 05:45:00,38.0,36.4,29.57,NW,306,0.0,4.0,94,0.00,,,0.00,Wunderground v.1.15,2013-04-26 09:45:00,
2013-04-26 05:50:00,38.0,36.4,29.57,NW,307,0.0,4.0,94,0.00,,,0.00,Wunderground v.1.15,2013-04-26 09:50:00,
2013-04-26 05:55:00,38.0,36.4,29.58,NW,304,0.0,4.0,94,0.00,,,0.00,Wunderground v.1.15,2013-04-26 09:55:00,
2013-04-26 06:00:00,38.0,36.4,29.58,WNW,285,0.0,4.0,94,0.00,,,0.00,Wunderground v.1.15,2013-04-26 10:00:00,
2013-04-26 06:10:00,38.1,36.5,29.58,WNW,287,1.0,1.0,94,0.00,,,0.00,Wunderground v.1.15,2013-04-26 10:10:00,
2013-04-26 06:15:00,38.0,36.4,29.58,WNW,288,0.0,4.0,94,0.00,,,0.00,Wunderground v.1.15,2013-04-26 10:15:00,
2013-04-26 06:20:00,38.1,36.5,29.59,WNW,302,0.0,4.0,94,0.00,,,0.00,Wunderground v.1.15,2013-04-26 10:20:00,
2013-04-26 06:25:00,38.1,36.5,29.59,WNW,295,0.0,4.0,94,0.00,,,0.00,Wunderground v.1.15,2013-04-26 10:25:00,
2013-04-26 06:30:00,38.2,36.6,29.59,WNW,298,0.0,4.0,94,0.00,,,0.00,Wunderground v.1.15,2013-04-26 10:30:00,
2013-04-26 06:39:00,38.4,36.8,29.59,WNW,290,1.0,4.0,94,0.00,,,0.00,Wunderground v.1.15,2013-04-26 10:39:00,
2013-04-26 06:44:00,38.6,37.3,29.59,WNW,294,1.0,4.0,95,0.00,,,0.00,Wunderground v.1.15,2013-04-26 10:44:00,
2013-04-26 06:49:00,39.0,37.7,29.60,WNW,292,0.0,4.0,95,0.00,,,0.00,Wunderground v.1.15,2013-04-26 10:49:00,
2013-04-26 06:54:00,39.3,38.0,29.60,WNW,292,0.0,4.0,95,0.00,,,0.00,Wunderground v.1.15,2013-04-26 10:54:00,
2013-04-26 06:59:00,39.7,38.4,29.60,WNW,287,0.0,4.0,95,0.00,,,0.00,Wunderground v.1.15,2013-04-26 10:59:00,
2013-04-26 07:04:00,40.1,38.8,29.60,WNW,293,0.0,4.0,95,0.00,,,0.00,Wunderground v.1.15,2013-04-26 11:04:00,
2013-04-26 07:14:00,41.2,39.6,29.60,WNW,294,0.0,4.0,94,0.00,,,0.00,Wunderground v.1.15,2013-04-26 11:14:00,
2013-04-26 07:19:00,41.7,39.8,29.61,WNW,294,0.0,4.0,93,0.00,,,0.00,Wunderground v.1.15,2013-04-26 11:19:00,
2013-04-26 07:24:00,42.3,40.1,29.61,WNW,286,0.0,4.0,92,0.00,,,0.00,Wunderground v.1.15,2013-04-26 11:24:00,
2013-04-26 07:29:00,42.8,40.4,29.61,WNW,300,0.0,4.0,91,0.00,,,0.00,Wunderground v.1.15,2013-04-26 11:29:00,
2013-04-26 07:34:00,43.4,40.7,29.61,NW,325,0.0,4.0,90,0.00,,,0.00,Wunderground v.1.15,2013-04-26 11:34:00,
2013-04-26 07:44:00,45.3,41.4,29.61,NW,324,1.0,4.0,86,0.00,,,0.00,Wunderground v.1.15,2013-04-26 11:44:00,
2013-04-26 07:49:00,45.9,41.0,29.61,NW,322,0.0,4.0,83,0.00,,,0.00,Wunderground v.1.15,2013-04-26 11:49:00,
2013-04-26 07:54:00,46.4,40.9,29.61,NW,319,0.0,4.0,81,0.00,,,0.00,Wunderground v.1.15,2013-04-26 11:54:00,
2013-04-26 07:59:00,47.2,41.3,29.61,NNW,327,1.0,1.0,80,0.00,,,0.00,Wunderground v.1.15,2013-04-26 11:59:00,
2013-04-26 08:04:00,48.2,41.7,29.62,NNW,331,2.0,2.0,78,0.00,,,0.00,Wunderground v.1.15,2013-04-26 12:04:00,
2013-04-26 08:09:00,49.8,42.5,29.62,NW,326,1.0,1.0,76,0.00,,,0.00,Wunderground v.1.15,2013-04-26 12:09:00,
2013-04-26 08:19:00,51.3,40.3,29.62,NNW,348,3.0,4.0,66,0.00,,,0.00,Wunderground v.1.15,2013-04-26 12:19:00,
2013-04-26 08:24:00,51.6,41.0,29.62,NNW,346,3.0,4.0,67,0.00,,,0.00,Wunderground v.1.15,2013-04-26 12:24:00,
2013-04-26 08:29:00,52.0,40.6,29.62,NNW,342,2.0,2.0,65,0.00,,,0.00,Wunderground v.1.15,2013-04-26 12:29:00,
2013-04-26 08:34:00,52.6,39.5,29.62,NW,323,2.0,3.0,61,0.00,,,0.00,Wunderground v.1.15,2013-04-26 12:34:00,
2013-04-26 08:39:00,52.7,39.6,29.62,North,350,3.0,7.0,61,0.00,,,0.00,Wunderground v.1.15,2013-04-26 12:39:00,
2013-04-26 08:45:00,52.9,39.0,29.62,NNW,340,4.0,7.0,59,0.00,,,0.00,Wunderground v.1.15,2013-04-26 12:45:00,
2013-04-26 08:50:00,53.2,38.4,29.62,NNW,338,4.0,7.0,57,0.00,,,0.00,Wunderground v.1.15,2013-04-26 12:50:00,
2013-04-26 08:55:00,53.3,39.3,29.63,North,5,3.0,7.0,59,0.00,,,0.00,Wunderground v.1.15,2013-04-26 12:55:00,
2013-04-26 09:00:00,52.4,37.6,29.63,NW,322,5.0,6.0,57,0.00,,,0.00,Wunderground v.1.15,2013-04-26 13:00:00,
2013-04-26 09:05:00,51.1,36.4,29.63,NNE,23,6.0,6.0,57,0.00,,,0.00,Wunderground v.1.15,2013-04-26 13:05:00,
2013-04-26 09:10:00,50.6,36.4,29.63,NNE,24,6.0,6.0,58,0.00,,,0.00,Wunderground v.1.15,2013-04-26 13:10:00,
2013-04-26 09:20:00,50.5,35.8,29.64,NNW,344,5.0,8.0,57,0.00,,,0.00,Wunderground v.1.15,2013-04-26 13:20:00,
2013-04-26 09:25:00,51.3,36.1,29.64,North,360,5.0,8.0,56,0.00,,,0.00,Wunderground v.1.15,2013-04-26 13:25:00,
2013-04-26 09:30:00,51.5,34.4,29.64,NNE,21,6.0,6.0,52,0.00,,,0.00,Wunderground v.1.15,2013-04-26 13:30:00,
2013-04-26 09:35:00,51.6,35.0,29.64,NNE,29,6.0,6.0,53,0.00,,,0.00,Wunderground v.1.15,2013-04-26 13:35:00,
2013-04-26 09:40:00,52.0,35.9,29.64,North,355,4.0,5.0,54,0.00,,,0.00,Wunderground v.1.15,2013-04-26 13:40:00,
2013-04-26 09:45:00,52.7,34.6,29.64,North,5,4.0,5.0,50,0.00,,,0.00,Wunderground v.1.15,2013-04-26 13:45:00,
2013-04-26 20:10:00,49.2,30.3,29.60,NNE,18,0.0,4.0,48,0.00,,,0.00,Wunderground v.1.15,2013-04-27 00:10:00,
2013-04-26 20:15:00,49.2,30.3,29.61,NNE,18,0.0,4.0,48,0.00,,,0.00,Wunderground v.1.15,2013-04-27 00:15:00,
2013-04-26 20:25:00,49.1,30.2,29.60,NNE,18,0.0,4.0,48,0.00,,,0.00,Wunderground v.1.15,2013-04-27 00:25:00,
2013-04-26 20:30:00,49.0,30.1,29.60,NNE,18,0.0,4.0,48,0.00,,,0.00,Wunderground v.1.15,2013-04-27 00:30:00,
2013-04-26 20:35:00,48.8,31.5,29.60,NNE,17,1.0,4.0,51,0.00,,,0.00,Wunderground v.1.15,2013-04-27 00:35:00,
2013-04-26 20:40:00,48.5,32.1,29.60,NNW,340,1.0,4.0,53,0.00,,,0.00,Wunderground v.1.15,2013-04-27 00:40:00,
2013-04-26 20:45:00,48.4,32.5,29.61,NNW,340,1.0,4.0,54,0.00,,,0.00,Wunderground v.1.15,2013-04-27 00:45:00,
2013-04-26 20:55:00,48.3,31.5,29.61,NW,325,0.0,5.0,52,0.00,,,0.00,Wunderground v.1.15,2013-04-27 00:55:00,
2013-04-26 21:00:00,48.3,31.5,29.60,WNW,298,2.0,4.0,52,0.00,,,0.00,Wunderground v.1.15,2013-04-27 01:00:00,
2013-04-26 21:05:00,48.2,32.3,29.60,West,265,4.0,7.0,54,0.00,,,0.00,Wunderground v.1.15,2013-04-27 01:05:00,
2013-04-26 21:10:00,48.0,30.7,29.60,West,265,4.0,4.0,51,0.00,,,0.00,Wunderground v.1.15,2013-04-27 01:10:00,
2013-04-26 21:15:00,47.9,30.1,29.61,West,265,4.0,5.0,50,0.00,,,0.00,Wunderground v.1.15,2013-04-27 01:15:00,
2013-04-26 21:20:00,48.1,29.8,29.61,West,265,4.0,5.0,49,0.00,,,0.00,Wunderground v.1.15,2013-04-27 01:20:00,
2013-04-26 21:30:00,48.1,30.3,29.61,West,265,5.0,5.0,50,0.00,,,0.00,Wunderground v.1.15,2013-04-27 01:30:00,
2013-04-26 21:35:00,47.8,29.5,29.61,West,265,5.0,6.0,49,0.00,,,0.00,Wunderground v.1.15,2013-04-27 01:35:00,
2013-04-26 21:40:00,47.8,30.0,29.61,West,265,5.0,5.0,50,0.00,,,0.00,Wunderground v.1.15,2013-04-27 01:40:00,
2013-04-26 21:45:00,47.6,29.9,29.61,West,265,4.0,5.0,50,0.00,,,0.00,Wunderground v.1.15,2013-04-27 01:45:00,
2013-04-26 21:50:00,47.5,30.3,29.61,West,260,5.0,7.0,51,0.00,,,0.00,Wunderground v.1.15,2013-04-27 01:50:00,
2013-04-26 21:59:00,47.0,29.8,29.60,SW,231,8.0,8.0,51,0.00,,,0.00,Wunderground v.1.15,2013-04-27 01:59:00,
2013-04-26 22:04:00,46.7,30.5,29.60,SW,231,7.0,8.0,53,0.00,,,0.00,Wunderground v.1.15,2013-04-27 02:04:00,
2013-04-26 22:09:00,46.8,30.1,29.60,SW,230,7.0,8.0,52,0.00,,,0.00,Wunderground v.1.15,2013-04-27 02:09:00,
2013-04-26 22:14:00,46.7,30.5,29.60,SSW,210,8.0,8.0,53,0.00,,,0.00,Wunderground v.1.15,2013-04-27 02:14:00,
2013-04-26 22:19:00,46.4,30.6,29.60,SW,230,9.0,9.0,54,0.00,,,0.00,Wunderground v.1.15,2013-04-27 02:19:00,
2013-04-26 22:24:00,46.3,30.1,29.60,SW,227,9.0,10.0,53,0.00,,,0.00,Wunderground v.1.15,2013-04-27 02:24:00,
2013-04-26 22:34:00,46.1,30.4,29.61,WSW,240,7.0,10.0,54,0.00,,,0.00,Wunderground v.1.15,2013-04-27 02:34:00,
2013-04-26 22:39:00,46.1,30.4,29.61,WSW,247,8.0,8.0,54,0.00,,,0.00,Wunderground v.1.15,2013-04-27 02:39:00,
2013-04-26 22:44:00,45.9,30.6,29.60,WSW,241,9.0,9.0,55,0.00,,,0.00,Wunderground v.1.15,2013-04-27 02:44:00,
2013-04-26 22:49:00,45.6,30.3,29.60,WSW,246,10.0,10.0,55,0.00,,,0.00,Wunderground v.1.15,2013-04-27 02:49:00,
2013-04-26 22:54:00,45.5,30.3,29.60,WSW,238,10.0,11.0,55,0.00,,,0.00,Wunderground v.1.15,2013-04-27 02:54:00,
2013-04-26 23:04:00,45.2,30.4,29.60,WSW,242,9.0,12.0,56,0.00,,,0.00,Wunderground v.1.15,2013-04-27 03:04:00,
2013-04-26 23:09:00,45.1,30.3,29.60,WSW,250,9.0,10.0,56,0.00,,,0.00,Wunderground v.1.15,2013-04-27 03:09:00,
2013-04-26 23:14:00,45.1,30.3,29.60,SW,236,9.0,10.0,56,0.00,,,0.00,Wunderground v.1.15,2013-04-27 03:14:00,
2013-04-26 23:19:00,45.1,30.3,29.60,SW,221,9.0,10.0,56,0.00,,,0.00,Wunderground v.1.15,2013-04-27 03:19:00,
2013-04-26 23:24:00,45.0,30.2,29.60,WSW,244,9.0,10.0,56,0.00,,,0.00,Wunderground v.1.15,2013-04-27 03:24:00,
2013-04-26 23:29:00,44.9,30.6,29.60,WSW,247,9.0,9.0,57,0.00,,,0.00,Wunderground v.1.15,2013-04-27 03:29:00,
2013-04-26 23:35:00,44.9,30.6,29.60,WSW,243,9.0,9.0,57,0.00,,,0.00,Wunderground v.1.15,2013-04-27 03:35:00,
2013-04-26 23:40:00,44.8,30.5,29.60,WSW,252,9.0,9.0,57,0.00,,,0.00,Wunderground v.1.15,2013-04-27 03:40:00,
2013-04-26 23:45:00,44.8,30.5,29.60,WSW,241,8.0,9.0,57,0.00,,,0.00,Wunderground v.1.15,2013-04-27 03:45:00,
2013-04-26 23:50:00,44.8,30.9,29.60,WSW,244,7.0,8.0,58,0.00,,,0.00,Wunderground v.1.15,2013-04-27 03:50:00,
2013-04-26 23:55:00,44.6,30.7,29.60,SW,236,6.0,9.0,58,0.00,,,0.00,Wunderground v.1.15,2013-04-27 03:55:00,